Time;durP1;ratioP1;P1;durP2;ratioP2;P2;SDS_P1;SDS_P2;PMS_P1;PMS_P2;Temp;Humidity;BMP_temperature;BMP_pressure;BME280_temperature;BME280_humidity;BME280_pressure;Samples;Min_cycle;Max_cycle;Signal;HPM_P1;HPM_P2
2022/11/10 00:00:51;;;;;;;;;;;11.10;99.90;;;;;;5032128;28;20116;-77
2022/11/10 00:03:17;;;;;;;91.65;48.55;;;11.10;99.90;;;;;;5031955;28;19905;-78
2022/11/10 00:05:42;;;;;;;78.97;46.35;;;11.00;99.90;;;;;;5031411;28;20119;-78
2022/11/10 00:08:09;;;;;;;;;;;11.10;99.90;;;;;;5050220;28;20040;-78
2022/11/10 00:10:55;;;;;;;89.90;46.67;;;11.00;99.90;;;;;;5049746;28;20360;-78
2022/11/10 00:13:22;;;;;;;93.97;50.03;;;11.10;99.90;;;;;;5050015;28;20420;-77
2022/11/10 00:18:32;;;;;;;83.10;48.72;;;11.10;99.90;;;;;;5049607;28;20407;-78
2022/11/10 00:21:05;;;;;;;;;;;11.20;99.90;;;;;;5031520;28;20037;-77
2022/11/10 00:23:31;;;;;;;83.38;46.97;;;11.10;99.90;;;;;;5049687;28;20007;-77
2022/11/10 00:25:56;;;;;;;;;;;11.10;99.90;;;;;;5024261;28;20124;-77
2022/11/10 00:28:22;;;;;;;86.85;46.20;;;11.00;99.90;;;;;;5029389;28;20466;-78
2022/11/10 00:30:47;;;;;;;;;;;11.10;99.90;;;;;;5029659;28;20037;-78
2022/11/10 00:33:13;;;;;;;93.32;48.28;;;11.00;99.90;;;;;;5011242;28;19909;-78
2022/11/10 00:35:38;;;;;;;;;;;11.00;99.90;;;;;;5029838;28;20075;-77
2022/11/10 00:38:04;;;;;;;105.15;49.53;;;10.90;99.90;;;;;;5011366;28;19909;-78
2022/11/10 00:40:29;;;;;;;94.35;50.22;;;11.00;99.90;;;;;;5029157;28;20028;-78
2022/11/10 00:42:55;;;;;;;98.00;51.97;;;11.00;99.90;;;;;;5029770;28;20104;-77
2022/11/10 00:45:20;;;;;;;;;;;11.00;99.90;;;;;;5012136;28;20544;-77
2022/11/10 00:47:46;;;;;;;109.68;53.80;;;11.00;99.90;;;;;;5028782;28;19909;-77
2022/11/10 00:50:11;;;;;;;;;;;11.00;99.90;;;;;;5011221;28;20445;-77
2022/11/10 00:52:37;;;;;;;104.53;53.78;;;10.90;99.90;;;;;;5029075;28;19905;-77
2022/11/10 00:55:03;;;;;;;88.43;48.13;;;10.90;99.90;;;;;;5029653;28;20116;-77
2022/11/10 00:57:28;;;;;;;;;;;10.90;99.90;;;;;;5011920;28;20402;-77
2022/11/10 00:59:54;;;;;;;106.35;54.13;;;10.90;99.90;;;;;;5011417;28;19972;-77
2022/11/10 01:02:19;;;;;;;;;;;10.80;99.90;;;;;;5012177;28;20762;-77
2022/11/10 01:04:45;;;;;;;113.45;56.13;;;10.90;99.90;;;;;;5010994;28;19920;-77
2022/11/10 01:07:10;;;;;;;110.85;55.33;;;10.80;99.90;;;;;;5011300;28;20460;-77
2022/11/10 01:09:36;;;;;;;;;;;10.90;99.90;;;;;;5029692;28;20033;-77
2022/11/10 01:12:02;;;;;;;118.70;56.42;;;10.80;99.90;;;;;;5029100;28;20305;-77
2022/11/10 01:14:27;;;;;;;;;;;10.80;99.90;;;;;;5029326;28;20026;-77
2022/11/10 01:16:53;;;;;;;118.15;55.90;;;10.80;99.90;;;;;;5011061;28;19909;-78
2022/11/10 01:19:18;;;;;;;;;;;10.90;99.90;;;;;;5011915;28;20518;-77
2022/11/10 01:21:44;;;;;;;126.40;58.70;;;10.90;99.90;;;;;;5028987;28;19955;-77
2022/11/10 01:24:09;;;;;;;137.15;59.85;;;10.80;99.90;;;;;;5029269;28;20034;-77
2022/11/10 01:26:35;;;;;;;;;;;10.90;99.90;;;;;;5042716;28;20056;-78
2022/11/10 01:29:01;;;;;;;102.90;52.53;;;10.80;99.90;;;;;;5048843;28;20020;-77
2022/11/10 01:31:26;;;;;;;;;;;10.80;99.90;;;;;;5049064;28;20148;-77
2022/11/10 01:33:52;;;;;;;109.28;54.83;;;10.80;99.90;;;;;;5048700;28;19912;-77
2022/11/10 01:36:17;;;;;;;112.78;55.22;;;10.90;99.90;;;;;;5048043;28;20672;-77
2022/11/10 01:38:43;;;;;;;;;;;10.80;99.90;;;;;;5048679;28;20021;-77
2022/11/10 01:41:11;;;;;;;110.00;52.78;;;10.80;99.90;;;;;;5030536;28;19911;-77
2022/11/10 01:43:37;;;;;;;119.30;58.30;;;10.80;99.90;;;;;;5048165;28;20033;-77
2022/11/10 01:46:08;;;;;;;110.05;56.38;;;10.90;99.90;;;;;;5030842;28;20040;-77
2022/11/10 01:48:48;;;;;;;114.22;57.95;;;10.80;99.90;;;;;;5048415;28;20485;-77
2022/11/10 01:51:32;;;;;;;111.95;55.63;;;10.80;99.90;;;;;;5030497;28;20554;-77
2022/11/10 01:54:05;;;;;;;126.28;59.55;;;10.80;99.90;;;;;;5031295;28;20032;-78
2022/11/10 01:56:35;;;;;;;135.70;63.05;;;10.80;99.90;;;;;;5030670;28;20083;-78
2022/11/10 01:59:05;;;;;;;121.85;57.65;;;10.80;99.90;;;;;;5030705;28;20025;-77
2022/11/10 02:01:31;;;;;;;145.02;62.15;;;10.80;99.90;;;;;;5031603;28;20110;-77
2022/11/10 02:03:58;;;;;;;;;;;10.80;99.90;;;;;;5031597;28;20131;-77
2022/11/10 02:06:30;;;;;;;118.03;57.05;;;10.80;99.90;;;;;;5030711;28;19909;-77
2022/11/10 02:08:58;;;;;;;120.05;56.55;;;10.70;99.90;;;;;;5031469;28;20037;-78
2022/11/10 02:11:24;;;;;;;105.53;51.50;;;10.70;99.90;;;;;;5047922;28;20111;-78
2022/11/10 02:13:50;;;;;;;112.65;51.97;;;10.70;99.90;;;;;;5029448;28;20681;-77
2022/11/10 02:16:18;;;;;;;100.32;49.58;;;10.70;99.90;;;;;;5029534;28;20562;-77
2022/11/10 02:18:43;;;;;;;99.07;49.85;;;10.70;99.90;;;;;;5028676;28;20025;-77
2022/11/10 02:21:09;;;;;;;;;;;10.70;99.90;;;;;;5047230;28;20044;-77
2022/11/10 02:23:35;;;;;;;116.30;54.72;;;10.70;99.90;;;;;;5029179;28;19963;-78
2022/11/10 02:26:04;;;;;;;;;;;10.80;99.90;;;;;;5029605;28;20049;-77
2022/11/10 02:28:43;;;;;;;108.57;52.03;;;10.80;99.90;;;;;;5028659;28;20423;-75
2022/11/10 02:31:09;;;;;;;98.88;51.13;;;10.70;99.90;;;;;;5046732;28;20029;-77
2022/11/10 02:33:35;;;;;;;;;;;10.70;99.90;;;;;;5029241;28;20029;-77
2022/11/10 02:36:01;;;;;;;120.63;54.70;;;10.70;99.90;;;;;;5046735;28;19908;-77
2022/11/10 02:38:27;;;;;;;;;;;10.70;99.90;;;;;;5046935;28;20021;-77
2022/11/10 02:40:52;;;;;;;127.35;57.00;;;10.80;99.90;;;;;;5028591;28;19916;-77
2022/11/10 02:43:18;;;;;;;;;;;10.80;99.90;;;;;;5029268;28;20037;-77
2022/11/10 02:45:44;;;;;;;123.78;55.55;;;10.70;99.90;;;;;;5029434;28;19912;-78
2022/11/10 02:48:11;;;;;;;136.00;63.15;;;10.70;99.90;;;;;;5047111;28;20071;-77
2022/11/10 02:50:36;;;;;;;116.05;55.88;;;10.70;99.90;;;;;;5027875;28;20489;-78
2022/11/10 02:53:02;;;;;;;;;;;10.70;99.90;;;;;;5047173;28;20033;-78
2022/11/10 02:55:28;;;;;;;127.13;56.47;;;10.70;99.90;;;;;;5028160;28;19916;-78
2022/11/10 02:57:54;;;;;;;;;;;10.70;99.90;;;;;;5046555;28;20397;-76
2022/11/10 03:00:19;;;;;;;129.25;52.90;;;10.70;99.90;;;;;;5029329;28;19909;-78
2022/11/10 03:02:45;;;;;;;;;;;10.70;99.90;;;;;;5047217;28;20096;-77
2022/11/10 03:05:11;;;;;;;115.75;50.72;;;10.70;99.90;;;;;;5046108;28;20299;-77
2022/11/10 03:07:36;;;;;;;;;;;10.80;99.90;;;;;;5029365;28;20404;-77
2022/11/10 03:10:03;;;;;;;111.65;50.92;;;10.70;99.90;;;;;;5028648;28;19915;-77
2022/11/10 03:12:29;;;;;;;110.72;48.85;;;10.70;99.90;;;;;;5046679;28;20115;-77
2022/11/10 03:14:54;;;;;;;;;;;10.80;99.90;;;;;;5046912;28;20147;-77
2022/11/10 03:17:20;;;;;;;107.68;50.88;;;10.70;99.90;;;;;;5028964;28;20324;-78
2022/11/10 03:19:45;;;;;;;108.35;52.80;;;10.80;99.90;;;;;;5046080;28;20048;-77
2022/11/10 03:22:11;;;;;;;124.13;57.75;;;10.70;99.90;;;;;;5028970;28;20507;-78
2022/11/10 03:24:36;;;;;;;;;;;10.60;99.90;;;;;;5029077;28;20025;-78
2022/11/10 03:27:02;;;;;;;115.70;52.50;;;10.70;99.90;;;;;;5028419;28;19927;-77
2022/11/10 03:29:27;;;;;;;;;;;10.70;99.90;;;;;;5046985;28;20032;-77
2022/11/10 03:31:53;;;;;;;107.13;50.60;;;10.70;99.90;;;;;;5029202;28;19939;-77
2022/11/10 03:34:18;;;;;;;;;;;10.70;99.90;;;;;;5047346;28;20040;-77
2022/11/10 03:36:44;;;;;;;105.10;48.58;;;10.70;99.90;;;;;;5046328;28;19909;-77
2022/11/10 03:39:10;;;;;;;;;;;10.70;99.90;;;;;;5029363;28;20120;-77
2022/11/10 03:41:35;;;;;;;119.82;49.78;;;10.70;99.90;;;;;;5028695;28;20391;-77
2022/11/10 03:44:01;;;;;;;;;;;10.70;99.90;;;;;;5047473;28;20024;-77
2022/11/10 03:46:26;;;;;;;101.75;46.50;;;10.70;99.90;;;;;;5028608;28;19912;-78
2022/11/10 03:48:52;;;;;;;;;;;10.70;99.90;;;;;;5028651;28;20171;-78
2022/11/10 03:51:17;;;;;;;106.63;49.53;;;10.70;99.90;;;;;;5029958;28;20176;-75
2022/11/10 03:53:43;;;;;;;;;;;10.70;99.90;;;;;;5028501;28;20029;-76
2022/11/10 03:56:08;;;;;;;125.35;57.05;;;10.70;99.90;;;;;;5028462;28;19919;-76
2022/11/10 03:58:34;;;;;;;;;;;10.70;99.90;;;;;;5029002;28;20157;-76
2022/11/10 04:01:00;;;;;;;119.28;53.60;;;10.70;99.90;;;;;;5046563;28;20003;-76
2022/11/10 04:03:25;;;;;;;;;;;10.60;99.90;;;;;;5046305;28;20056;-75
2022/11/10 04:16:49;;;;;;;114.95;56.00;;;10.60;99.90;;;;;;5051255;28;20086;-76
2022/11/10 04:19:14;;;;;;;;;;;10.60;99.90;;;;;;5032700;28;20108;-76
2022/11/10 04:21:40;;;;;;;113.57;52.70;;;10.60;99.90;;;;;;5032463;28;19904;-76
2022/11/10 04:24:06;;;;;;;;;;;10.60;99.90;;;;;;5033606;28;20499;-76
2022/11/10 04:26:32;;;;;;;140.60;58.20;;;10.60;99.90;;;;;;5031805;28;19920;-77
2022/11/10 04:29:03;;;;;;;128.70;56.00;;;10.60;99.90;;;;;;5032051;28;20049;-76
2022/11/10 04:31:31;;;;;;;113.65;51.67;;;10.60;99.90;;;;;;5032098;28;20083;-76
2022/11/10 04:33:57;;;;;;;133.57;56.45;;;10.70;99.90;;;;;;5048492;28;20025;-77
2022/11/10 04:36:26;;;;;;;135.25;57.88;;;10.60;99.90;;;;;;5049158;28;20036;-76
2022/11/10 04:38:53;;;;;;;103.93;51.10;;;10.60;99.90;;;;;;5030776;28;20035;-76
2022/11/10 04:41:18;;;;;;;143.85;59.95;;;10.60;99.90;;;;;;5030742;28;20390;-76
2022/11/10 04:43:44;;;;;;;;;;;10.60;99.90;;;;;;5049062;28;20108;-76
2022/11/10 04:46:22;;;;;;;118.40;54.38;;;10.60;99.90;;;;;;5048970;28;19921;-77
2022/11/10 04:48:48;;;;;;;137.27;55.63;;;10.60;99.90;;;;;;5048752;28;20108;-76
2022/11/10 04:51:14;;;;;;;112.15;52.33;;;10.60;99.90;;;;;;5048275;28;20104;-77
2022/11/10 04:53:40;;;;;;;;;;;10.50;99.90;;;;;;5048975;28;20033;-77
2022/11/10 04:56:05;;;;;;;119.70;51.83;;;10.50;99.90;;;;;;5030431;28;19912;-77
2022/11/10 04:58:31;;;;;;;;;;;10.50;99.90;;;;;;5031334;28;20144;-77
2022/11/10 05:00:57;;;;;;;125.20;51.90;;;10.50;99.90;;;;;;5030662;28;19905;-76
2022/11/10 05:03:22;;;;;;;159.77;64.05;;;10.60;99.90;;;;;;5030013;28;20029;-75
2022/11/10 05:05:48;;;;;;;;;;;10.50;99.90;;;;;;5032067;28;20112;-76
2022/11/10 05:08:14;;;;;;;163.32;64.47;;;10.50;99.90;;;;;;5048612;28;19915;-76
2022/11/10 05:10:40;;;;;;;187.45;67.75;;;10.50;99.90;;;;;;5029892;28;20037;-76
2022/11/10 05:13:06;;;;;;;;;;;10.50;99.90;;;;;;5048603;28;20021;-76
2022/11/10 05:15:32;;;;;;;167.38;66.70;;;10.50;99.90;;;;;;5049078;28;19908;-76
2022/11/10 05:17:57;;;;;;;;;;;10.40;99.90;;;;;;5030283;28;20031;-76
2022/11/10 05:20:24;;;;;;;156.23;63.65;;;10.50;99.90;;;;;;5029529;28;20289;-76
2022/11/10 05:25:40;;;;;;;167.05;63.55;;;10.40;99.90;;;;;;5048186;28;20048;-78
2022/11/10 05:28:08;;;;;;;155.88;61.83;;;10.40;99.90;;;;;;5029892;28;20045;-76
2022/11/10 05:30:34;;;;;;;147.98;61.08;;;10.40;99.90;;;;;;5030537;28;20025;-75
2022/11/10 05:33:00;;;;;;;155.60;64.97;;;10.40;99.90;;;;;;5029746;28;20668;-76
2022/11/10 05:35:25;;;;;;;;;;;10.40;99.90;;;;;;5048621;28;20036;-75
2022/11/10 05:37:51;;;;;;;229.20;74.28;;;10.30;99.90;;;;;;5029415;28;19909;-75
2022/11/10 05:40:16;;;;;;;;;;;10.50;99.90;;;;;;5048612;28;20374;-75
2022/11/10 05:42:51;;;;;;;192.82;70.22;;;10.40;99.90;;;;;;5047932;28;19908;-77
2022/11/10 05:45:19;;;;;;;182.95;68.25;;;10.40;99.90;;;;;;5030178;28;20094;-75
2022/11/10 05:47:45;;;;;;;150.27;61.55;;;10.40;99.90;;;;;;5047621;28;20033;-76
2022/11/10 05:50:10;;;;;;;;;;;10.40;99.90;;;;;;5030069;28;20032;-76
2022/11/10 05:52:42;;;;;;;168.40;62.67;;;10.40;99.90;;;;;;5029177;28;19951;-76
2022/11/10 05:55:08;;;;;;;154.75;59.88;;;10.50;99.90;;;;;;5029527;28;20025;-76
2022/11/10 05:57:34;;;;;;;156.80;59.72;;;10.40;99.90;;;;;;5029438;28;20021;-76
2022/11/10 05:59:59;;;;;;;;;;;10.50;99.90;;;;;;5030551;28;20040;-76
2022/11/10 06:02:25;;;;;;;163.50;62.53;;;10.50;99.90;;;;;;5046663;28;19919;-77
2022/11/10 06:04:50;;;;;;;;;;;10.50;99.90;;;;;;5030280;28;20021;-76
2022/11/10 06:07:16;;;;;;;156.63;62.58;;;10.50;99.90;;;;;;5047490;28;19913;-76
2022/11/10 06:09:41;;;;;;;;;;;10.50;99.90;;;;;;5030368;28;20444;-76
2022/11/10 06:12:07;;;;;;;151.32;56.83;;;10.50;99.90;;;;;;5047442;28;19904;-76
2022/11/10 06:14:32;;;;;;;;;;;10.50;99.90;;;;;;5047643;28;20124;-76
2022/11/10 06:16:58;;;;;;;188.40;68.97;;;10.50;99.90;;;;;;5047218;28;19909;-76
2022/11/10 06:19:24;;;;;;;163.98;65.72;;;10.60;99.90;;;;;;5047217;28;20038;-77
2022/11/10 06:21:49;;;;;;;;;;;10.50;99.90;;;;;;5030536;28;20056;-76
2022/11/10 06:24:15;;;;;;;159.82;58.88;;;10.60;99.90;;;;;;5029127;28;19930;-76
2022/11/10 06:26:40;;;;;;;;;;;10.60;99.90;;;;;;5030001;28;20057;-76
2022/11/10 06:29:06;;;;;;;204.93;73.38;;;10.60;99.90;;;;;;5029665;28;19962;-76
2022/11/10 06:31:31;;;;;;;;;;;10.60;99.90;;;;;;5029720;28;20481;-76
2022/11/10 06:33:57;;;;;;;161.02;65.15;;;10.60;99.90;;;;;;5046952;28;19905;-76
2022/11/10 06:36:22;;;;;;;;;;;10.70;99.90;;;;;;5048368;28;20024;-77
2022/11/10 06:38:48;;;;;;;131.70;55.67;;;10.70;99.90;;;;;;5047859;28;19908;-76
2022/11/10 06:41:14;;;;;;;140.13;57.53;;;10.70;99.90;;;;;;5030182;28;20017;-76
2022/11/10 06:43:40;;;;;;;;;;;10.70;99.90;;;;;;5030477;28;20036;-76
2022/11/10 06:46:05;;;;;;;148.23;59.10;;;10.70;99.90;;;;;;5048492;28;19919;-77
2022/11/10 06:48:31;;;;;;;;;;;10.80;99.90;;;;;;5029454;28;20025;-76
2022/11/10 06:51:00;;;;;;;122.35;55.03;;;10.70;99.90;;;;;;5047333;28;19905;-76
2022/11/10 06:53:26;;;;;;;128.60;57.55;;;10.80;99.90;;;;;;5029107;28;20029;-76
2022/11/10 06:55:52;;;;;;;;;;;10.90;99.90;;;;;;5029002;28;20060;-76
2022/11/10 06:58:18;;;;;;;118.40;53.60;;;10.90;99.90;;;;;;5046366;28;19915;-76
2022/11/10 07:00:44;;;;;;;127.25;56.20;;;10.90;99.90;;;;;;5028163;28;20040;-76
2022/11/10 07:03:11;;;;;;;;;;;10.90;99.90;;;;;;5046790;28;20029;-76
2022/11/10 07:05:36;;;;;;;;;;;11.00;99.90;;;;;;5046176;28;19909;-76
2022/11/10 07:08:06;;;;;;;126.38;56.15;;;11.10;99.90;;;;;;5046702;28;19908;-76
2022/11/10 07:10:33;;;;;;;106.03;53.83;;;11.10;99.90;;;;;;5028000;28;20036;-75
2022/11/10 07:13:01;;;;;;;114.13;53.88;;;11.20;99.90;;;;;;5046258;28;20506;-76
2022/11/10 07:15:27;;;;;;;121.40;55.80;;;11.20;99.90;;;;;;5027735;28;20116;-76
2022/11/10 07:17:52;;;;;;;;;;;11.30;99.90;;;;;;5028834;28;20132;-76
2022/11/10 07:20:18;;;;;;;94.43;47.40;;;11.40;99.90;;;;;;5046264;28;20043;-76
2022/11/10 07:22:44;;;;;;;;;;;11.50;99.90;;;;;;5028789;28;20111;-75
2022/11/10 07:25:10;;;;;;;95.70;43.80;;;11.70;99.90;;;;;;5028238;28;19912;-75
2022/11/10 07:27:36;;;;;;;83.72;42.53;;;11.90;99.90;;;;;;5046212;28;20094;-75
2022/11/10 07:30:02;;;;;;;;;;;12.10;99.90;;;;;;5047147;28;20710;-76
2022/11/10 07:32:27;;;;;;;84.72;41.60;;;12.30;99.90;;;;;;5027964;28;19908;-76
2022/11/10 07:34:53;;;;;;;;;;;12.50;99.90;;;;;;5028845;28;20404;-79
2022/11/10 07:37:18;;;;;;;83.43;44.80;;;12.70;99.90;;;;;;5046151;28;20022;-76
2022/11/10 07:39:44;;;;;;;;;;;12.80;99.90;;;;;;5046757;28;20455;-76
2022/11/10 07:42:10;;;;;;;79.68;42.58;;;13.00;99.90;;;;;;5028935;28;19919;-75
2022/11/10 07:44:35;;;;;;;;;;;13.30;99.90;;;;;;5032316;28;20033;-75
2022/11/10 07:47:01;;;;;;;77.32;41.28;;;13.50;99.90;;;;;;5049644;28;20450;-75
2022/11/10 07:49:26;;;;;;;;;;;13.70;99.90;;;;;;5050382;28;20128;-75
2022/11/10 07:51:52;;;;;;;70.97;35.95;;;14.00;99.90;;;;;;5049880;28;19999;-76
2022/11/10 07:54:18;;;;;;;62.35;34.10;;;14.20;99.90;;;;;;5031790;28;20036;-75
2022/11/10 07:56:44;;;;;;;60.88;32.95;;;14.40;99.90;;;;;;5031493;28;20075;-75
2022/11/10 07:59:09;;;;;;;53.05;29.35;;;14.60;99.90;;;;;;5049940;28;20013;-74
2022/11/10 08:01:35;;;;;;;78.72;49.80;;;14.80;99.90;;;;;;5048898;28;20372;-75
2022/11/10 08:04:00;;;;;;;60.05;36.20;;;15.10;99.90;;;;;;5049527;28;20021;-74
2022/11/10 08:06:26;;;;;;;63.60;38.65;;;15.40;99.90;;;;;;5031705;28;20448;-77
2022/11/10 08:08:52;;;;;;;40.60;25.50;;;15.80;99.90;;;;;;5049231;28;20578;-76
2022/11/10 08:11:17;;;;;;;48.00;32.20;;;16.10;99.90;;;;;;5031450;28;20025;-77
2022/11/10 08:13:43;;;;;;;35.22;22.88;;;16.40;99.90;;;;;;5031623;28;20025;-77
2022/11/10 08:16:09;;;;;;;30.42;19.20;;;16.90;99.90;;;;;;5049172;28;20060;-77
2022/11/10 08:18:34;;;;;;;25.13;16.92;;;17.20;99.90;;;;;;5048828;28;20033;-77
2022/11/10 08:21:01;;;;;;;67.93;47.03;;;17.40;99.90;;;;;;5049219;28;20033;-78
2022/11/10 08:23:29;;;;;;;28.30;18.50;;;17.40;99.90;;;;;;5049625;28;20028;-77
2022/11/10 08:26:00;;;;;;;40.85;23.50;;;17.80;99.90;;;;;;5031312;28;20053;-75
2022/11/10 08:28:26;;;;;;;39.08;19.02;;;17.80;99.90;;;;;;5048820;28;20394;-75
2022/11/10 08:30:52;;;;;;;64.47;47.50;;;17.50;99.90;;;;;;5048993;28;20025;-77
2022/11/10 08:33:19;;;;;;;36.88;26.25;;;17.10;99.90;;;;;;5031001;28;20516;-77
2022/11/10 08:35:48;;;;;;;23.77;15.68;;;16.90;99.90;;;;;;5049392;28;20025;-77
2022/11/10 08:38:20;;;;;;;31.70;22.73;;;16.90;99.90;;;;;;5031095;28;20029;-77
2022/11/10 08:40:46;;;;;;;23.17;14.95;;;16.90;99.90;;;;;;5049221;28;20048;-77
2022/11/10 08:43:12;;;;;;;24.23;16.45;;;17.30;99.90;;;;;;5048574;28;20419;-75
2022/11/10 08:45:40;;;;;;;20.75;14.05;;;17.80;99.90;;;;;;5030446;28;20048;-75
2022/11/10 08:48:11;;;;;;;18.00;12.68;;;18.30;99.90;;;;;;5030821;28;20028;-74
2022/11/10 08:50:38;;;;;;;17.40;11.68;;;18.80;99.90;;;;;;5031110;28;20033;-76
2022/11/10 08:53:06;;;;;;;14.30;9.60;;;19.10;99.90;;;;;;5048457;28;20028;-75
2022/11/10 08:55:32;;;;;;;24.15;18.88;;;19.30;99.90;;;;;;5048127;28;20029;-74
2022/11/10 08:57:59;;;;;;;22.00;16.65;;;19.50;99.90;;;;;;5048800;28;20029;-75
2022/11/10 09:00:27;;;;;;;15.20;10.10;;;19.50;99.90;;;;;;5047703;28;20348;-75
2022/11/10 09:02:53;;;;;;;19.83;13.82;;;19.50;99.90;;;;;;5048794;28;20027;-78
2022/11/10 09:05:19;;;;;;;19.23;14.98;;;19.30;99.90;;;;;;5030687;28;20099;-77
2022/11/10 09:07:46;;;;;;;16.35;10.02;;;19.10;99.90;;;;;;5048418;28;20044;-75
2022/11/10 09:10:13;;;;;;;15.85;10.00;;;18.70;99.90;;;;;;5030947;28;20589;-75
2022/11/10 09:12:39;;;;;;;12.95;9.63;;;18.40;99.90;;;;;;5048583;28;20053;-76
2022/11/10 09:15:06;;;;;;;13.55;9.60;;;18.20;99.90;;;;;;5047599;28;20021;-76
2022/11/10 09:17:32;;;;;;;16.92;9.32;;;17.80;99.90;;;;;;5048518;28;20020;-75
2022/11/10 09:19:58;;;;;;;14.43;11.82;;;17.60;99.90;;;;;;5048568;28;20404;-74
2022/11/10 09:22:23;;;;;;;22.38;15.90;;;17.40;99.90;;;;;;5048117;28;20021;-77
2022/11/10 09:24:49;;;;;;;15.20;10.73;;;17.20;99.90;;;;;;5030053;28;20033;-77
2022/11/10 09:27:14;;;;;;;16.40;11.25;;;16.80;99.90;;;;;;5047433;28;20045;-76
2022/11/10 09:29:40;;;;;;;21.10;11.07;;;16.70;99.90;;;;;;5048264;28;20396;-77
2022/11/10 09:32:05;;;;;;;12.38;9.05;;;16.60;99.90;;;;;;5029731;28;20087;-77
2022/11/10 09:34:31;;;;;;;14.75;10.20;;;16.50;99.90;;;;;;5047885;28;20056;-77
2022/11/10 09:36:57;;;;;;;22.33;11.10;;;16.40;99.90;;;;;;5047579;28;20025;-76
2022/11/10 09:39:22;;;;;;;14.25;9.73;;;16.30;99.90;;;;;;5047676;28;20025;-77
2022/11/10 09:41:48;;;;;;;17.65;10.25;;;16.10;99.90;;;;;;5047819;28;20029;-77
2022/11/10 09:44:14;;;;;;;14.65;10.07;;;16.00;99.90;;;;;;5047328;28;20073;-76
2022/11/10 09:46:43;;;;;;;14.70;10.27;;;15.90;99.90;;;;;;5047573;28;20203;-77
2022/11/10 09:49:43;;;;;;;14.85;9.57;;;15.90;99.90;;;;;;5047368;28;20029;-77
2022/11/10 09:52:10;;;;;;;16.77;11.25;;;15.80;99.90;;;;;;5047148;28;20076;-77
2022/11/10 09:54:43;;;;;;;14.00;10.07;;;15.60;99.90;;;;;;5047530;28;20033;-78
2022/11/10 09:57:19;;;;;;;16.30;11.10;;;15.70;99.90;;;;;;5029277;28;20037;-77
2022/11/10 09:59:45;;;;;;;15.85;11.82;;;15.50;99.90;;;;;;5046800;28;20437;-77
2022/11/10 10:02:22;;;;;;;20.00;11.63;;;15.50;99.90;;;;;;5047348;28;20123;-77
2022/11/10 10:04:56;;;;;;;22.13;12.40;;;15.40;99.90;;;;;;5029066;28;20497;-77
2022/11/10 10:07:27;;;;;;;17.08;10.18;;;15.50;99.90;;;;;;5029462;28;20505;-77
2022/11/10 10:10:30;;;;;;;15.63;9.82;;;15.50;99.90;;;;;;5029194;28;20044;-77
2022/11/10 10:13:20;;;;;;;13.70;9.25;;;15.30;99.90;;;;;;5047326;28;20057;-77
2022/11/10 10:16:18;;;;;;;14.48;9.98;;;15.10;99.90;;;;;;5046892;28;20429;-78
2022/11/10 10:19:05;;;;;;;16.52;11.20;;;15.10;99.90;;;;;;5047206;28;20029;-78
2022/11/10 10:22:12;;;;;;;20.15;12.55;;;15.00;99.90;;;;;;5046864;28;20536;-77
2022/11/10 10:24:38;;;;;;;15.53;10.47;;;15.00;99.90;;;;;;5029203;28;20028;-77
2022/11/10 10:27:08;;;;;;;17.55;11.07;;;15.10;99.90;;;;;;5046459;28;20159;-76
2022/11/10 10:29:42;;;;;;;17.23;11.25;;;15.20;99.90;;;;;;5046192;28;20074;-77
2022/11/10 10:32:13;;;;;;;14.02;9.30;;;15.30;99.90;;;;;;5029259;28;20115;-77
2022/11/10 10:34:40;;;;;;;15.60;9.93;;;15.40;99.90;;;;;;5029165;28;20452;-77
2022/11/10 10:37:21;;;;;;;16.52;10.80;;;15.40;99.90;;;;;;5047040;28;20039;-77
2022/11/10 10:39:49;;;;;;;16.52;10.02;;;15.40;99.90;;;;;;5029102;28;20025;-77
2022/11/10 10:42:36;;;;;;;21.20;11.90;;;15.40;99.90;;;;;;5046907;28;20033;-77
2022/11/10 10:45:18;;;;;;;16.48;10.43;;;15.50;99.90;;;;;;5046203;28;20017;-77
2022/11/10 10:47:46;;;;;;;19.25;12.20;;;15.50;99.90;;;;;;5028563;28;20044;-77
2022/11/10 10:50:27;;;;;;;19.98;11.52;;;15.50;99.90;;;;;;5028578;28;20025;-77
2022/11/10 10:53:14;;;;;;;18.33;12.07;;;15.50;99.90;;;;;;5046743;28;20040;-77
2022/11/10 10:55:45;;;;;;;;;;;15.50;99.90;;;;;;5029190;28;20028;-77
2022/11/10 10:58:18;;;;;;;16.63;11.30;;;15.50;99.90;;;;;;5028130;28;19912;-77
2022/11/10 11:00:45;;;;;;;16.48;10.98;;;15.50;99.90;;;;;;5045774;28;20025;-77
2022/11/10 11:03:25;;;;;;;25.52;11.30;;;15.50;99.90;;;;;;5026843;28;20068;-76
2022/11/10 11:06:03;;;;;;;18.55;12.15;;;15.50;99.90;;;;;;5043862;28;20527;-76
2022/11/10 11:08:29;;;;;;;16.83;11.65;;;15.50;99.90;;;;;;5026406;28;20040;-75
2022/11/10 11:10:55;;;;;;;16.90;11.13;;;15.40;99.90;;;;;;5045048;28;20051;-76
2022/11/10 11:13:26;;;;;;;20.95;12.15;;;15.30;99.90;;;;;;5026959;28;20588;-76
2022/11/10 11:16:00;;;;;;;19.40;12.50;;;15.30;99.90;;;;;;5027045;28;20156;-76
2022/11/10 11:18:28;;;;;;;24.63;15.02;;;15.30;99.90;;;;;;5048068;28;20170;-76
2022/11/10 11:21:21;;;;;;;20.35;13.70;;;15.30;99.90;;;;;;5049280;28;20035;-75
2022/11/10 11:23:59;;;;;;;20.10;13.10;;;15.40;99.90;;;;;;5048806;28;20405;-75
2022/11/10 11:26:53;;;;;;;17.15;12.02;;;15.40;99.90;;;;;;5031209;28;20045;-76
2022/11/10 11:29:59;;;;;;;20.05;12.65;;;15.40;99.90;;;;;;5030240;28;20432;-75
2022/11/10 11:33:05;;;;;;;21.83;13.50;;;15.30;99.90;;;;;;4992123;28;20124;-75
2022/11/10 11:36:01;;;;;;;22.20;14.63;;;15.20;99.90;;;;;;5000878;28;20456;-76
2022/11/10 11:38:34;;;;;;;27.02;15.80;;;15.00;99.90;;;;;;5046586;28;20037;-76
2022/11/10 11:41:32;;;;;;;23.60;14.43;;;14.90;99.90;;;;;;5031724;28;20041;-78
2022/11/10 11:44:16;;;;;;;21.27;14.68;;;14.70;99.90;;;;;;5032071;28;20028;-75
2022/11/10 11:46:47;;;;;;;23.48;14.57;;;14.60;99.90;;;;;;5049589;28;20045;-75
2022/11/10 11:49:15;;;;;;;24.92;16.40;;;14.50;99.90;;;;;;5032235;28;20128;-76
2022/11/10 11:51:44;;;;;;;27.73;15.32;;;14.50;99.90;;;;;;5050268;28;20033;-77
2022/11/10 11:54:38;;;;;;;28.35;16.15;;;14.50;99.90;;;;;;5032169;28;20539;-78
2022/11/10 11:57:31;;;;;;;29.13;16.30;;;14.50;99.90;;;;;;5049827;28;20032;-78
2022/11/10 12:00:13;;;;;;;25.35;16.02;;;14.40;99.90;;;;;;5031812;28;20025;-76
2022/11/10 12:02:57;;;;;;;23.80;15.52;;;14.40;99.90;;;;;;5031239;28;20056;-78
2022/11/10 12:05:29;;;;;;;24.35;15.93;;;14.40;99.90;;;;;;5049994;28;20040;-78
2022/11/10 12:08:10;;;;;;;26.60;15.57;;;14.40;99.90;;;;;;5031598;28;20434;-77
2022/11/10 12:11:07;;;;;;;25.85;15.65;;;14.50;99.90;;;;;;5049336;28;20055;-77
2022/11/10 12:13:37;;;;;;;26.40;16.60;;;14.50;99.90;;;;;;5031166;28;20037;-74
2022/11/10 12:16:08;;;;;;;31.75;18.40;;;14.50;99.90;;;;;;5049545;28;20040;-75
2022/11/10 12:18:45;;;;;;;30.98;18.83;;;14.50;99.90;;;;;;5031727;28;20025;-75
2022/11/10 12:21:30;;;;;;;31.25;18.25;;;14.40;99.90;;;;;;5031679;28;20090;-74
2022/11/10 12:24:15;;;;;;;26.48;17.40;;;14.40;99.90;;;;;;5031365;28;20440;-75
2022/11/10 12:26:46;;;;;;;31.65;19.88;;;14.30;99.90;;;;;;5023645;28;20504;-76
2022/11/10 12:29:43;;;;;;;32.22;19.98;;;14.30;99.90;;;;;;5028157;28;20021;-77
2022/11/10 12:32:18;;;;;;;32.42;20.83;;;14.40;99.90;;;;;;5014916;28;20052;-75
2022/11/10 12:34:51;;;;;;;29.13;20.60;;;14.40;99.90;;;;;;5046625;28;20029;-76
2022/11/10 12:37:26;;;;;;;30.17;18.98;;;14.40;99.90;;;;;;5030488;28;20453;-77
2022/11/10 12:40:27;;;;;;;32.50;19.20;;;14.40;99.90;;;;;;5048151;28;20040;-76
2022/11/10 12:42:58;;;;;;;30.80;18.20;;;14.50;99.90;;;;;;4988714;28;20036;-75
2022/11/10 12:45:31;;;;;;;32.05;17.30;;;14.50;99.90;;;;;;5031020;28;20035;-77
2022/11/10 12:47:58;;;;;;;32.10;19.13;;;14.60;99.90;;;;;;5048152;28;20087;-75
2022/11/10 12:50:32;;;;;;;36.40;20.95;;;14.60;99.90;;;;;;5048515;28;20481;-75
2022/11/10 12:53:23;;;;;;;31.67;18.42;;;14.60;99.90;;;;;;5030512;28;20056;-76
2022/11/10 12:55:56;;;;;;;31.27;20.33;;;14.70;99.90;;;;;;5048493;28;20025;-78
2022/11/10 12:58:22;;;;;;;40.25;22.45;;;14.60;99.90;;;;;;5047902;28;20029;-77
2022/11/10 13:01:06;;;;;;;30.58;19.40;;;14.60;99.90;;;;;;5030917;28;20051;-75
2022/11/10 13:03:35;;;;;;;27.50;18.33;;;14.50;99.90;;;;;;5029928;28;20512;-76
2022/11/10 13:06:06;;;;;;;39.90;18.95;;;14.50;99.90;;;;;;5048263;28;20029;-77
2022/11/10 13:08:41;;;;;;;28.70;18.83;;;14.50;99.90;;;;;;5048304;28;20041;-75
2022/11/10 13:11:12;;;;;;;30.98;19.30;;;14.50;99.90;;;;;;5048848;28;20553;-76
2022/11/10 13:13:57;;;;;;;31.30;18.90;;;14.50;99.90;;;;;;5047880;28;20029;-76